sensor_id;sensor_type;location;lat;lon;timestamp;temperature;humidity
28532;DHT22;15738;44.860;10.066;2022-09-21T00:00:43;15.50;99.90
28532;DHT22;15738;44.860;10.066;2022-09-21T00:03:30;15.50;99.90
28532;DHT22;15738;44.860;10.066;2022-09-21T00:06:17;15.40;99.90
28532;DHT22;15738;44.860;10.066;2022-09-21T00:09:03;15.40;99.90
28532;DHT22;15738;44.860;10.066;2022-09-21T00:11:49;15.30;99.90
28532;DHT22;15738;44.860;10.066;2022-09-21T00:14:41;15.30;99.90
28532;DHT22;15738;44.860;10.066;2022-09-21T00:17:27;15.30;99.90
28532;DHT22;15738;44.860;10.066;2022-09-21T00:20:14;15.20;99.90
28532;DHT22;15738;44.860;10.066;2022-09-21T00:23:00;15.20;99.90
28532;DHT22;15738;44.860;10.066;2022-09-21T00:25:45;15.20;99.90
28532;DHT22;15738;44.860;10.066;2022-09-21T00:28:31;15.20;99.90
28532;DHT22;15738;44.860;10.066;2022-09-21T00:31:16;15.10;99.90
28532;DHT22;15738;44.860;10.066;2022-09-21T00:34:03;15.10;99.90
28532;DHT22;15738;44.860;10.066;2022-09-21T00:36:52;15.10;99.90
28532;DHT22;15738;44.860;10.066;2022-09-21T00:39:38;15.00;99.90
28532;DHT22;15738;44.860;10.066;2022-09-21T00:42:28;15.00;99.90
28532;DHT22;15738;44.860;10.066;2022-09-21T00:45:14;14.90;99.90
28532;DHT22;15738;44.860;10.066;2022-09-21T00:48:05;14.90;99.90
28532;DHT22;15738;44.860;10.066;2022-09-21T00:50:53;14.90;99.90
28532;DHT22;15738;44.860;10.066;2022-09-21T00:53:42;14.90;99.90
28532;DHT22;15738;44.860;10.066;2022-09-21T00:56:28;14.90;99.90
28532;DHT22;15738;44.860;10.066;2022-09-21T00:59:15;14.90;99.90
28532;DHT22;15738;44.860;10.066;2022-09-21T01:02:06;14.80;99.90
28532;DHT22;15738;44.860;10.066;2022-09-21T01:04:52;14.90;99.90
28532;DHT22;15738;44.860;10.066;2022-09-21T01:07:43;14.90;99.90
28532;DHT22;15738;44.860;10.066;2022-09-21T01:27:02;14.60;99.90
28532;DHT22;15738;44.860;10.066;2022-09-21T01:29:58;14.60;99.90
28532;DHT22;15738;44.860;10.066;2022-09-21T01:32:50;14.60;99.90
28532;DHT22;15738;44.860;10.066;2022-09-21T01:35:46;14.60;99.90
28532;DHT22;15738;44.860;10.066;2022-09-21T01:38:37;14.50;99.90
28532;DHT22;15738;44.860;10.066;2022-09-21T01:41:26;14.60;99.90
28532;DHT22;15738;44.860;10.066;2022-09-21T01:44:20;14.60;99.90
28532;DHT22;15738;44.860;10.066;2022-09-21T01:47:09;14.60;99.90
28532;DHT22;15738;44.860;10.066;2022-09-21T01:49:59;14.50;99.90
28532;DHT22;15738;44.860;10.066;2022-09-21T01:53:07;14.50;99.90
28532;DHT22;15738;44.860;10.066;2022-09-21T01:55:58;14.50;99.90
28532;DHT22;15738;44.860;10.066;2022-09-21T02:01:42;14.40;99.90
28532;DHT22;15738;44.860;10.066;2022-09-21T02:04:28;14.40;99.90
28532;DHT22;15738;44.860;10.066;2022-09-21T02:07:15;14.40;99.90
28532;DHT22;15738;44.860;10.066;2022-09-21T02:10:03;14.40;99.90
28532;DHT22;15738;44.860;10.066;2022-09-21T02:12:53;14.40;99.90
28532;DHT22;15738;44.860;10.066;2022-09-21T02:22:06;14.40;99.90
28532;DHT22;15738;44.860;10.066;2022-09-21T02:25:11;14.40;99.90
28532;DHT22;15738;44.860;10.066;2022-09-21T02:28:00;14.40;99.90
28532;DHT22;15738;44.860;10.066;2022-09-21T02:43:36;14.10;99.90
28532;DHT22;15738;44.860;10.066;2022-09-21T02:46:31;14.10;99.90
28532;DHT22;15738;44.860;10.066;2022-09-21T02:49:39;14.00;99.90
28532;DHT22;15738;44.860;10.066;2022-09-21T02:52:27;14.00;99.90
28532;DHT22;15738;44.860;10.066;2022-09-21T02:55:15;13.90;99.90
28532;DHT22;15738;44.860;10.066;2022-09-21T02:58:03;14.00;99.90
28532;DHT22;15738;44.860;10.066;2022-09-21T03:00:50;13.90;99.90
28532;DHT22;15738;44.860;10.066;2022-09-21T03:03:37;14.00;99.90
28532;DHT22;15738;44.860;10.066;2022-09-21T03:06:23;14.00;99.90
28532;DHT22;15738;44.860;10.066;2022-09-21T03:09:08;14.00;99.90
28532;DHT22;15738;44.860;10.066;2022-09-21T03:11:54;14.00;99.90
28532;DHT22;15738;44.860;10.066;2022-09-21T03:14:40;14.00;99.90
28532;DHT22;15738;44.860;10.066;2022-09-21T03:17:25;14.00;99.90
28532;DHT22;15738;44.860;10.066;2022-09-21T03:20:11;13.90;99.90
28532;DHT22;15738;44.860;10.066;2022-09-21T03:22:58;13.90;99.90
28532;DHT22;15738;44.860;10.066;2022-09-21T03:25:44;13.90;99.90
28532;DHT22;15738;44.860;10.066;2022-09-21T03:28:30;13.90;99.90
28532;DHT22;15738;44.860;10.066;2022-09-21T03:31:16;13.90;99.90
28532;DHT22;15738;44.860;10.066;2022-09-21T03:34:02;13.90;99.90
28532;DHT22;15738;44.860;10.066;2022-09-21T03:36:47;13.90;99.90
28532;DHT22;15738;44.860;10.066;2022-09-21T03:39:33;13.80;99.90
28532;DHT22;15738;44.860;10.066;2022-09-21T03:42:19;13.80;99.90
28532;DHT22;15738;44.860;10.066;2022-09-21T03:45:05;13.80;99.90
28532;DHT22;15738;44.860;10.066;2022-09-21T03:47:54;13.80;99.90
28532;DHT22;15738;44.860;10.066;2022-09-21T03:50:41;13.70;99.90
28532;DHT22;15738;44.860;10.066;2022-09-21T03:53:27;13.70;99.90
28532;DHT22;15738;44.860;10.066;2022-09-21T03:56:13;13.80;99.90
28532;DHT22;15738;44.860;10.066;2022-09-21T03:58:58;13.80;99.90
28532;DHT22;15738;44.860;10.066;2022-09-21T04:01:44;13.80;99.90
28532;DHT22;15738;44.860;10.066;2022-09-21T04:04:30;13.80;99.90
28532;DHT22;15738;44.860;10.066;2022-09-21T04:07:15;13.80;99.90
28532;DHT22;15738;44.860;10.066;2022-09-21T04:10:06;13.80;99.90
28532;DHT22;15738;44.860;10.066;2022-09-21T04:12:56;13.80;99.90
28532;DHT22;15738;44.860;10.066;2022-09-21T04:15:42;13.80;99.90
28532;DHT22;15738;44.860;10.066;2022-09-21T04:18:28;13.90;99.90
28532;DHT22;15738;44.860;10.066;2022-09-21T04:21:13;13.90;99.90
28532;DHT22;15738;44.860;10.066;2022-09-21T04:23:59;13.90;99.90
28532;DHT22;15738;44.860;10.066;2022-09-21T04:26:46;13.90;99.90
28532;DHT22;15738;44.860;10.066;2022-09-21T04:29:32;13.80;99.90
28532;DHT22;15738;44.860;10.066;2022-09-21T04:32:18;13.80;99.90
28532;DHT22;15738;44.860;10.066;2022-09-21T04:35:04;13.80;99.90
28532;DHT22;15738;44.860;10.066;2022-09-21T04:37:54;13.90;99.90
28532;DHT22;15738;44.860;10.066;2022-09-21T04:40:40;13.90;99.90
28532;DHT22;15738;44.860;10.066;2022-09-21T04:43:26;13.90;99.90
28532;DHT22;15738;44.860;10.066;2022-09-21T04:46:14;13.90;99.90
28532;DHT22;15738;44.860;10.066;2022-09-21T04:49:00;14.00;99.90
28532;DHT22;15738;44.860;10.066;2022-09-21T04:51:46;14.00;99.90
28532;DHT22;15738;44.860;10.066;2022-09-21T04:54:31;13.90;99.90
28532;DHT22;15738;44.860;10.066;2022-09-21T04:57:17;14.00;99.90
28532;DHT22;15738;44.860;10.066;2022-09-21T05:00:04;14.00;99.90
28532;DHT22;15738;44.860;10.066;2022-09-21T05:02:50;14.00;99.90
28532;DHT22;15738;44.860;10.066;2022-09-21T05:05:36;14.00;99.90
28532;DHT22;15738;44.860;10.066;2022-09-21T05:08:23;14.00;99.90
28532;DHT22;15738;44.860;10.066;2022-09-21T05:11:27;14.00;99.90
28532;DHT22;15738;44.860;10.066;2022-09-21T05:14:13;14.10;99.90
28532;DHT22;15738;44.860;10.066;2022-09-21T05:16:59;14.00;99.90
28532;DHT22;15738;44.860;10.066;2022-09-21T05:19:44;14.00;99.90
28532;DHT22;15738;44.860;10.066;2022-09-21T05:22:30;14.00;99.90
28532;DHT22;15738;44.860;10.066;2022-09-21T05:25:16;14.10;99.90
28532;DHT22;15738;44.860;10.066;2022-09-21T05:28:02;14.10;99.90
28532;DHT22;15738;44.860;10.066;2022-09-21T05:31:03;14.20;99.90
28532;DHT22;15738;44.860;10.066;2022-09-21T05:34:11;14.30;99.90
28532;DHT22;15738;44.860;10.066;2022-09-21T05:39:50;15.00;99.90
28532;DHT22;15738;44.860;10.066;2022-09-21T05:42:37;15.50;99.90
28532;DHT22;15738;44.860;10.066;2022-09-21T05:45:23;16.80;99.90
28532;DHT22;15738;44.860;10.066;2022-09-21T05:48:16;16.20;99.90
28532;DHT22;15738;44.860;10.066;2022-09-21T05:51:17;16.70;99.90
28532;DHT22;15738;44.860;10.066;2022-09-21T05:54:28;17.30;99.90
28532;DHT22;15738;44.860;10.066;2022-09-21T05:57:49;18.20;99.90
28532;DHT22;15738;44.860;10.066;2022-09-21T06:04:12;20.30;99.90
28532;DHT22;15738;44.860;10.066;2022-09-21T06:07:04;21.20;99.90
28532;DHT22;15738;44.860;10.066;2022-09-21T06:09:54;21.70;99.90
28532;DHT22;15738;44.860;10.066;2022-09-21T06:12:40;22.10;99.90
28532;DHT22;15738;44.860;10.066;2022-09-21T06:15:26;22.60;99.90
28532;DHT22;15738;44.860;10.066;2022-09-21T06:18:12;22.80;99.90
28532;DHT22;15738;44.860;10.066;2022-09-21T06:21:02;22.90;99.90
28532;DHT22;15738;44.860;10.066;2022-09-21T06:23:47;23.40;99.90
28532;DHT22;15738;44.860;10.066;2022-09-21T06:26:34;23.40;99.90
28532;DHT22;15738;44.860;10.066;2022-09-21T06:29:19;22.90;99.90
28532;DHT22;15738;44.860;10.066;2022-09-21T06:32:09;21.80;99.90
28532;DHT22;15738;44.860;10.066;2022-09-21T06:34:55;21.50;99.90
28532;DHT22;15738;44.860;10.066;2022-09-21T06:37:40;20.70;99.90
28532;DHT22;15738;44.860;10.066;2022-09-21T06:40:27;20.20;99.90
28532;DHT22;15738;44.860;10.066;2022-09-21T06:43:14;19.70;99.90
28532;DHT22;15738;44.860;10.066;2022-09-21T06:46:00;19.40;99.90
28532;DHT22;15738;44.860;10.066;2022-09-21T06:48:47;19.60;99.90
28532;DHT22;15738;44.860;10.066;2022-09-21T06:51:33;19.60;99.90
28532;DHT22;15738;44.860;10.066;2022-09-21T06:54:20;18.80;99.90
28532;DHT22;15738;44.860;10.066;2022-09-21T06:57:06;18.40;99.90
28532;DHT22;15738;44.860;10.066;2022-09-21T06:59:52;18.60;99.90
28532;DHT22;15738;44.860;10.066;2022-09-21T07:02:42;18.50;99.90
28532;DHT22;15738;44.860;10.066;2022-09-21T07:05:28;18.50;99.90
28532;DHT22;15738;44.860;10.066;2022-09-21T07:08:14;18.80;99.90
28532;DHT22;15738;44.860;10.066;2022-09-21T07:11:20;18.90;99.90
28532;DHT22;15738;44.860;10.066;2022-09-21T07:14:08;18.70;99.90
28532;DHT22;15738;44.860;10.066;2022-09-21T07:16:54;18.70;99.90
28532;DHT22;15738;44.860;10.066;2022-09-21T07:19:40;18.70;99.90
28532;DHT22;15738;44.860;10.066;2022-09-21T07:22:27;18.30;99.90
28532;DHT22;15738;44.860;10.066;2022-09-21T07:25:13;18.20;99.90
28532;DHT22;15738;44.860;10.066;2022-09-21T07:27:59;17.80;99.90
28532;DHT22;15738;44.860;10.066;2022-09-21T07:30:45;17.60;99.90
28532;DHT22;15738;44.860;10.066;2022-09-21T07:33:31;17.50;99.90
28532;DHT22;15738;44.860;10.066;2022-09-21T07:36:20;17.70;99.90
28532;DHT22;15738;44.860;10.066;2022-09-21T07:39:08;17.70;99.90
28532;DHT22;15738;44.860;10.066;2022-09-21T07:41:54;17.50;99.90
28532;DHT22;15738;44.860;10.066;2022-09-21T07:44:40;17.70;99.90
28532;DHT22;15738;44.860;10.066;2022-09-21T07:47:26;17.60;99.90
28532;DHT22;15738;44.860;10.066;2022-09-21T07:50:12;17.50;99.90
28532;DHT22;15738;44.860;10.066;2022-09-21T07:53:02;17.20;99.90
28532;DHT22;15738;44.860;10.066;2022-09-21T07:55:48;17.10;99.90
28532;DHT22;15738;44.860;10.066;2022-09-21T07:58:35;17.30;99.90
28532;DHT22;15738;44.860;10.066;2022-09-21T08:01:40;17.30;99.90
28532;DHT22;15738;44.860;10.066;2022-09-21T08:04:26;17.40;99.90
28532;DHT22;15738;44.860;10.066;2022-09-21T08:07:12;17.40;99.90
28532;DHT22;15738;44.860;10.066;2022-09-21T08:09:57;17.30;99.90
28532;DHT22;15738;44.860;10.066;2022-09-21T08:12:43;17.40;99.90
28532;DHT22;15738;44.860;10.066;2022-09-21T08:15:29;17.80;99.90
28532;DHT22;15738;44.860;10.066;2022-09-21T08:18:38;17.70;99.90
28532;DHT22;15738;44.860;10.066;2022-09-21T08:21:24;17.80;99.90
28532;DHT22;15738;44.860;10.066;2022-09-21T08:24:11;17.80;99.90
28532;DHT22;15738;44.860;10.066;2022-09-21T08:26:57;17.80;99.90
28532;DHT22;15738;44.860;10.066;2022-09-21T08:29:43;17.50;99.90
28532;DHT22;15738;44.860;10.066;2022-09-21T08:32:28;17.50;99.90
28532;DHT22;15738;44.860;10.066;2022-09-21T08:35:35;17.70;99.90
28532;DHT22;15738;44.860;10.066;2022-09-21T08:38:21;18.00;99.90
28532;DHT22;15738;44.860;10.066;2022-09-21T08:44:24;17.80;99.90
28532;DHT22;15738;44.860;10.066;2022-09-21T08:47:40;18.00;99.90
28532;DHT22;15738;44.860;10.066;2022-09-21T08:50:29;18.30;99.90
28532;DHT22;15738;44.860;10.066;2022-09-21T08:53:24;18.20;99.90
28532;DHT22;15738;44.860;10.066;2022-09-21T08:56:12;18.50;99.90
28532;DHT22;15738;44.860;10.066;2022-09-21T08:58:58;18.40;99.90
28532;DHT22;15738;44.860;10.066;2022-09-21T09:02:17;18.50;99.90
28532;DHT22;15738;44.860;10.066;2022-09-21T09:08:14;18.40;99.90
28532;DHT22;15738;44.860;10.066;2022-09-21T09:17:56;18.70;99.90
28532;DHT22;15738;44.860;10.066;2022-09-21T09:20:56;18.70;99.90
28532;DHT22;15738;44.860;10.066;2022-09-21T09:23:50;18.60;99.90
28532;DHT22;15738;44.860;10.066;2022-09-21T09:26:46;18.70;99.90
28532;DHT22;15738;44.860;10.066;2022-09-21T09:38:28;18.80;99.90
28532;DHT22;15738;44.860;10.066;2022-09-21T09:50:29;19.00;99.90
28532;DHT22;15738;44.860;10.066;2022-09-21T09:53:24;19.10;99.90
28532;DHT22;15738;44.860;10.066;2022-09-21T09:56:11;19.00;99.90
28532;DHT22;15738;44.860;10.066;2022-09-21T09:59:02;18.90;99.90
28532;DHT22;15738;44.860;10.066;2022-09-21T10:02:17;19.00;99.90
28532;DHT22;15738;44.860;10.066;2022-09-21T10:05:05;19.20;99.90
28532;DHT22;15738;44.860;10.066;2022-09-21T10:07:52;19.30;99.90
28532;DHT22;15738;44.860;10.066;2022-09-21T10:10:41;19.40;99.90
28532;DHT22;15738;44.860;10.066;2022-09-21T10:13:38;19.40;99.90
28532;DHT22;15738;44.860;10.066;2022-09-21T10:16:25;19.40;99.90
28532;DHT22;15738;44.860;10.066;2022-09-21T10:19:20;19.50;99.90
28532;DHT22;15738;44.860;10.066;2022-09-21T10:22:16;19.70;99.90
28532;DHT22;15738;44.860;10.066;2022-09-21T10:25:02;19.60;99.90
28532;DHT22;15738;44.860;10.066;2022-09-21T10:27:51;19.30;99.90
28532;DHT22;15738;44.860;10.066;2022-09-21T10:30:38;19.30;99.90
28532;DHT22;15738;44.860;10.066;2022-09-21T10:33:24;19.40;99.90
28532;DHT22;15738;44.860;10.066;2022-09-21T10:36:28;19.50;99.90
28532;DHT22;15738;44.860;10.066;2022-09-21T10:39:18;19.60;99.90
28532;DHT22;15738;44.860;10.066;2022-09-21T10:42:13;19.60;99.90
28532;DHT22;15738;44.860;10.066;2022-09-21T10:45:15;19.80;99.90
28532;DHT22;15738;44.860;10.066;2022-09-21T10:50:51;19.80;99.90
28532;DHT22;15738;44.860;10.066;2022-09-21T10:53:38;19.80;99.90
28532;DHT22;15738;44.860;10.066;2022-09-21T10:56:24;20.00;99.90
28532;DHT22;15738;44.860;10.066;2022-09-21T10:59:31;20.10;99.90
28532;DHT22;15738;44.860;10.066;2022-09-21T11:05:24;20.40;99.90
28532;DHT22;15738;44.860;10.066;2022-09-21T11:08:18;20.50;99.90
28532;DHT22;15738;44.860;10.066;2022-09-21T11:14:01;20.50;99.90
28532;DHT22;15738;44.860;10.066;2022-09-21T11:16:59;20.10;99.90
28532;DHT22;15738;44.860;10.066;2022-09-21T11:20:13;20.20;99.90
28532;DHT22;15738;44.860;10.066;2022-09-21T11:23:26;20.40;99.90
28532;DHT22;15738;44.860;10.066;2022-09-21T11:26:28;20.30;99.90
28532;DHT22;15738;44.860;10.066;2022-09-21T11:38:21;20.40;99.90
28532;DHT22;15738;44.860;10.066;2022-09-21T11:56:50;20.70;99.90
28532;DHT22;15738;44.860;10.066;2022-09-21T11:59:51;20.60;99.90
28532;DHT22;15738;44.860;10.066;2022-09-21T12:03:01;20.40;99.90
28532;DHT22;15738;44.860;10.066;2022-09-21T12:15:27;20.50;99.90
28532;DHT22;15738;44.860;10.066;2022-09-21T12:18:37;20.60;99.90
28532;DHT22;15738;44.860;10.066;2022-09-21T12:21:34;20.50;99.90
28532;DHT22;15738;44.860;10.066;2022-09-21T12:24:27;20.50;99.90
28532;DHT22;15738;44.860;10.066;2022-09-21T12:27:37;20.50;99.90
28532;DHT22;15738;44.860;10.066;2022-09-21T12:30:23;20.60;99.90
28532;DHT22;15738;44.860;10.066;2022-09-21T12:39:16;20.80;99.90
28532;DHT22;15738;44.860;10.066;2022-09-21T12:42:09;20.70;99.90
28532;DHT22;15738;44.860;10.066;2022-09-21T12:50:47;20.70;99.90
28532;DHT22;15738;44.860;10.066;2022-09-21T12:53:35;20.50;99.90
28532;DHT22;15738;44.860;10.066;2022-09-21T13:02:21;20.70;99.90
28532;DHT22;15738;44.860;10.066;2022-09-21T13:08:30;20.80;99.90
28532;DHT22;15738;44.860;10.066;2022-09-21T13:11:20;20.90;99.90
28532;DHT22;15738;44.860;10.066;2022-09-21T13:14:09;20.90;99.90
28532;DHT22;15738;44.860;10.066;2022-09-21T13:16:58;21.00;99.90
28532;DHT22;15738;44.860;10.066;2022-09-21T13:20:04;20.90;99.90
28532;DHT22;15738;44.860;10.066;2022-09-21T13:22:58;21.00;99.90
28532;DHT22;15738;44.860;10.066;2022-09-21T13:25:57;21.00;99.90
28532;DHT22;15738;44.860;10.066;2022-09-21T13:34:43;21.00;99.90
28532;DHT22;15738;44.860;10.066;2022-09-21T13:37:29;21.00;99.90
28532;DHT22;15738;44.860;10.066;2022-09-21T13:43:18;21.10;99.90
28532;DHT22;15738;44.860;10.066;2022-09-21T13:46:05;21.10;99.90
28532;DHT22;15738;44.860;10.066;2022-09-21T13:48:52;21.00;99.90
28532;DHT22;15738;44.860;10.066;2022-09-21T13:52:04;21.20;99.90
28532;DHT22;15738;44.860;10.066;2022-09-21T13:54:58;21.20;99.90
28532;DHT22;15738;44.860;10.066;2022-09-21T13:57:47;21.40;99.90
28532;DHT22;15738;44.860;10.066;2022-09-21T14:00:37;21.50;99.90
28532;DHT22;15738;44.860;10.066;2022-09-21T14:03:54;21.40;99.90
28532;DHT22;15738;44.860;10.066;2022-09-21T14:06:43;21.20;99.90
28532;DHT22;15738;44.860;10.066;2022-09-21T14:09:56;21.30;99.90
28532;DHT22;15738;44.860;10.066;2022-09-21T14:12:41;21.20;99.90
28532;DHT22;15738;44.860;10.066;2022-09-21T14:15:34;21.20;99.90
28532;DHT22;15738;44.860;10.066;2022-09-21T14:18:35;21.00;99.90
28532;DHT22;15738;44.860;10.066;2022-09-21T14:21:21;21.00;99.90
28532;DHT22;15738;44.860;10.066;2022-09-21T14:24:16;21.10;99.90
28532;DHT22;15738;44.860;10.066;2022-09-21T14:27:25;21.00;99.90
28532;DHT22;15738;44.860;10.066;2022-09-21T14:30:17;21.20;99.90
28532;DHT22;15738;44.860;10.066;2022-09-21T14:33:19;21.40;99.90
28532;DHT22;15738;44.860;10.066;2022-09-21T14:36:08;21.40;99.90
28532;DHT22;15738;44.860;10.066;2022-09-21T14:38:58;21.30;99.90
28532;DHT22;15738;44.860;10.066;2022-09-21T14:41:48;21.20;99.90
28532;DHT22;15738;44.860;10.066;2022-09-21T14:44:35;21.00;99.90
28532;DHT22;15738;44.860;10.066;2022-09-21T14:47:34;20.80;99.90
28532;DHT22;15738;44.860;10.066;2022-09-21T15:00:24;20.50;99.90
28532;DHT22;15738;44.860;10.066;2022-09-21T15:07:06;20.70;99.90
28532;DHT22;15738;44.860;10.066;2022-09-21T15:10:23;20.70;99.90
28532;DHT22;15738;44.860;10.066;2022-09-21T15:16:43;20.60;99.90
28532;DHT22;15738;44.860;10.066;2022-09-21T15:19:35;20.50;99.90
28532;DHT22;15738;44.860;10.066;2022-09-21T15:22:21;20.50;99.90
28532;DHT22;15738;44.860;10.066;2022-09-21T15:25:12;20.50;99.90
28532;DHT22;15738;44.860;10.066;2022-09-21T15:27:58;20.60;99.90
28532;DHT22;15738;44.860;10.066;2022-09-21T15:30:45;20.60;99.90
28532;DHT22;15738;44.860;10.066;2022-09-21T15:33:36;20.60;99.90
28532;DHT22;15738;44.860;10.066;2022-09-21T15:36:24;20.60;99.90
28532;DHT22;15738;44.860;10.066;2022-09-21T15:39:22;20.60;99.90
28532;DHT22;15738;44.860;10.066;2022-09-21T15:45:11;20.60;99.90
28532;DHT22;15738;44.860;10.066;2022-09-21T15:47:58;20.50;99.90
28532;DHT22;15738;44.860;10.066;2022-09-21T15:50:47;20.50;99.90
28532;DHT22;15738;44.860;10.066;2022-09-21T15:53:43;20.50;99.90
28532;DHT22;15738;44.860;10.066;2022-09-21T15:56:30;20.50;99.90
28532;DHT22;15738;44.860;10.066;2022-09-21T15:59:18;20.50;99.90
28532;DHT22;15738;44.860;10.066;2022-09-21T16:02:18;20.50;99.90
28532;DHT22;15738;44.860;10.066;2022-09-21T16:05:12;20.40;99.90
28532;DHT22;15738;44.860;10.066;2022-09-21T16:08:09;20.40;99.90
28532;DHT22;15738;44.860;10.066;2022-09-21T16:11:16;20.40;99.90
28532;DHT22;15738;44.860;10.066;2022-09-21T16:14:17;20.40;99.90
28532;DHT22;15738;44.860;10.066;2022-09-21T16:17:34;20.40;99.90
28532;DHT22;15738;44.860;10.066;2022-09-21T16:20:21;20.20;99.90
28532;DHT22;15738;44.860;10.066;2022-09-21T16:23:22;20.20;99.90
28532;DHT22;15738;44.860;10.066;2022-09-21T16:26:18;20.20;99.90
28532;DHT22;15738;44.860;10.066;2022-09-21T16:29:20;20.10;99.90
28532;DHT22;15738;44.860;10.066;2022-09-21T16:35:35;20.00;99.90
28532;DHT22;15738;44.860;10.066;2022-09-21T16:38:23;20.00;99.90
28532;DHT22;15738;44.860;10.066;2022-09-21T16:41:09;19.90;99.90
28532;DHT22;15738;44.860;10.066;2022-09-21T16:43:55;19.90;99.90
28532;DHT22;15738;44.860;10.066;2022-09-21T16:46:41;19.90;99.90
28532;DHT22;15738;44.860;10.066;2022-09-21T16:49:30;19.80;99.90
28532;DHT22;15738;44.860;10.066;2022-09-21T16:52:18;19.80;99.90
28532;DHT22;15738;44.860;10.066;2022-09-21T16:55:04;19.70;99.90
28532;DHT22;15738;44.860;10.066;2022-09-21T16:57:50;19.70;99.90
28532;DHT22;15738;44.860;10.066;2022-09-21T17:00:39;19.60;99.90
28532;DHT22;15738;44.860;10.066;2022-09-21T17:03:25;19.50;99.90
28532;DHT22;15738;44.860;10.066;2022-09-21T17:06:16;19.40;99.90
28532;DHT22;15738;44.860;10.066;2022-09-21T17:12:17;19.30;99.90
28532;DHT22;15738;44.860;10.066;2022-09-21T17:15:03;19.20;99.90
28532;DHT22;15738;44.860;10.066;2022-09-21T17:17:49;19.20;99.90
28532;DHT22;15738;44.860;10.066;2022-09-21T17:20:38;19.10;99.90
28532;DHT22;15738;44.860;10.066;2022-09-21T17:23:24;19.00;99.90
28532;DHT22;15738;44.860;10.066;2022-09-21T17:26:16;18.90;99.90
28532;DHT22;15738;44.860;10.066;2022-09-21T17:29:19;18.80;99.90
28532;DHT22;15738;44.860;10.066;2022-09-21T17:32:09;18.80;99.90
28532;DHT22;15738;44.860;10.066;2022-09-21T17:37:59;18.70;99.90
28532;DHT22;15738;44.860;10.066;2022-09-21T17:40:45;18.60;99.90
28532;DHT22;15738;44.860;10.066;2022-09-21T17:43:39;18.60;99.90
28532;DHT22;15738;44.860;10.066;2022-09-21T17:46:35;18.60;99.90
28532;DHT22;15738;44.860;10.066;2022-09-21T17:49:25;18.50;99.90
28532;DHT22;15738;44.860;10.066;2022-09-21T17:52:18;18.50;99.90
28532;DHT22;15738;44.860;10.066;2022-09-21T17:55:23;18.40;99.90
28532;DHT22;15738;44.860;10.066;2022-09-21T18:01:33;18.30;99.90
28532;DHT22;15738;44.860;10.066;2022-09-21T18:04:20;18.30;99.90
28532;DHT22;15738;44.860;10.066;2022-09-21T18:07:07;18.20;99.90
28532;DHT22;15738;44.860;10.066;2022-09-21T18:09:55;18.20;99.90
28532;DHT22;15738;44.860;10.066;2022-09-21T18:18:43;18.00;99.90
28532;DHT22;15738;44.860;10.066;2022-09-21T18:21:35;18.00;99.90
28532;DHT22;15738;44.860;10.066;2022-09-21T18:24:27;17.90;99.90
28532;DHT22;15738;44.860;10.066;2022-09-21T18:27:17;17.90;99.90
28532;DHT22;15738;44.860;10.066;2022-09-21T18:30:04;17.80;99.90
28532;DHT22;15738;44.860;10.066;2022-09-21T18:36:39;17.80;99.90
28532;DHT22;15738;44.860;10.066;2022-09-21T18:55:26;17.50;99.90
28532;DHT22;15738;44.860;10.066;2022-09-21T18:58:13;17.40;99.90
28532;DHT22;15738;44.860;10.066;2022-09-21T19:01:00;17.40;99.90
28532;DHT22;15738;44.860;10.066;2022-09-21T19:03:48;17.30;99.90
28532;DHT22;15738;44.860;10.066;2022-09-21T19:10:16;17.20;99.90
28532;DHT22;15738;44.860;10.066;2022-09-21T19:17:13;17.10;99.90
28532;DHT22;15738;44.860;10.066;2022-09-21T19:20:36;17.00;99.90
28532;DHT22;15738;44.860;10.066;2022-09-21T19:23:27;17.00;99.90
28532;DHT22;15738;44.860;10.066;2022-09-21T19:26:31;16.90;99.90
28532;DHT22;15738;44.860;10.066;2022-09-21T19:32:15;16.80;99.90
28532;DHT22;15738;44.860;10.066;2022-09-21T19:38:00;16.70;99.90
28532;DHT22;15738;44.860;10.066;2022-09-21T19:40:51;16.60;99.90
28532;DHT22;15738;44.860;10.066;2022-09-21T19:46:58;16.50;99.90
28532;DHT22;15738;44.860;10.066;2022-09-21T19:49:49;16.40;99.90
28532;DHT22;15738;44.860;10.066;2022-09-21T19:52:38;16.30;99.90
28532;DHT22;15738;44.860;10.066;2022-09-21T19:55:24;16.30;99.90
28532;DHT22;15738;44.860;10.066;2022-09-21T19:58:29;16.20;99.90
28532;DHT22;15738;44.860;10.066;2022-09-21T20:01:35;16.10;99.90
28532;DHT22;15738;44.860;10.066;2022-09-21T20:04:50;16.10;99.90
28532;DHT22;15738;44.860;10.066;2022-09-21T20:07:47;16.00;99.90
28532;DHT22;15738;44.860;10.066;2022-09-21T20:10:44;16.00;99.90
28532;DHT22;15738;44.860;10.066;2022-09-21T20:13:55;15.90;99.90
28532;DHT22;15738;44.860;10.066;2022-09-21T20:16:55;15.80;99.90
28532;DHT22;15738;44.860;10.066;2022-09-21T20:19:58;15.80;99.90
28532;DHT22;15738;44.860;10.066;2022-09-21T20:22:50;15.80;99.90
28532;DHT22;15738;44.860;10.066;2022-09-21T20:25:43;15.70;99.90
28532;DHT22;15738;44.860;10.066;2022-09-21T20:28:32;15.60;99.90
28532;DHT22;15738;44.860;10.066;2022-09-21T20:31:23;15.60;99.90
28532;DHT22;15738;44.860;10.066;2022-09-21T20:34:10;15.50;99.90
28532;DHT22;15738;44.860;10.066;2022-09-21T20:36:56;15.50;99.90
28532;DHT22;15738;44.860;10.066;2022-09-21T20:39:42;15.50;99.90
28532;DHT22;15738;44.860;10.066;2022-09-21T20:42:27;15.40;99.90
28532;DHT22;15738;44.860;10.066;2022-09-21T20:45:13;15.40;99.90
28532;DHT22;15738;44.860;10.066;2022-09-21T20:47:59;15.40;99.90
28532;DHT22;15738;44.860;10.066;2022-09-21T20:51:00;15.40;99.90
28532;DHT22;15738;44.860;10.066;2022-09-21T20:53:46;15.40;99.90
28532;DHT22;15738;44.860;10.066;2022-09-21T20:56:31;15.40;99.90
28532;DHT22;15738;44.860;10.066;2022-09-21T20:59:17;15.40;99.90
28532;DHT22;15738;44.860;10.066;2022-09-21T21:02:03;15.40;99.90
28532;DHT22;15738;44.860;10.066;2022-09-21T21:04:48;15.40;99.90
28532;DHT22;15738;44.860;10.066;2022-09-21T21:07:34;15.30;99.90
28532;DHT22;15738;44.860;10.066;2022-09-21T21:10:20;15.30;99.90
28532;DHT22;15738;44.860;10.066;2022-09-21T21:13:06;15.30;99.90
28532;DHT22;15738;44.860;10.066;2022-09-21T21:15:52;15.30;99.90
28532;DHT22;15738;44.860;10.066;2022-09-21T21:18:39;15.20;99.90
28532;DHT22;15738;44.860;10.066;2022-09-21T21:21:25;15.20;99.90
28532;DHT22;15738;44.860;10.066;2022-09-21T21:24:10;15.20;99.90
28532;DHT22;15738;44.860;10.066;2022-09-21T21:27:22;15.10;99.90